sensor_id;sensor_type;location;lat;lon;timestamp;P1;durP1;ratioP1;P2;durP2;ratioP2
8978;SDS011;4524;51.364;5.448;2022-07-30T00:00:28;7.13;;;4.60;;
8978;SDS011;4524;51.364;5.448;2022-07-30T00:02:56;10.13;;;4.70;;
8978;SDS011;4524;51.364;5.448;2022-07-30T00:05:24;10.13;;;5.07;;
8978;SDS011;4524;51.364;5.448;2022-07-30T00:07:53;8.77;;;5.00;;
8978;SDS011;4524;51.364;5.448;2022-07-30T00:10:21;11.10;;;4.90;;
8978;SDS011;4524;51.364;5.448;2022-07-30T00:12:49;6.53;;;4.80;;
8978;SDS011;4524;51.364;5.448;2022-07-30T00:15:17;7.83;;;4.97;;
8978;SDS011;4524;51.364;5.448;2022-07-30T00:17:45;8.97;;;4.93;;
8978;SDS011;4524;51.364;5.448;2022-07-30T00:20:14;7.30;;;5.10;;
8978;SDS011;4524;51.364;5.448;2022-07-30T00:22:44;8.03;;;4.87;;
8978;SDS011;4524;51.364;5.448;2022-07-30T00:25:13;9.53;;;5.00;;
8978;SDS011;4524;51.364;5.448;2022-07-30T00:27:41;8.20;;;4.70;;
8978;SDS011;4524;51.364;5.448;2022-07-30T00:30:10;7.27;;;5.07;;
8978;SDS011;4524;51.364;5.448;2022-07-30T00:32:39;8.17;;;4.40;;
8978;SDS011;4524;51.364;5.448;2022-07-30T00:35:07;9.03;;;5.27;;
8978;SDS011;4524;51.364;5.448;2022-07-30T00:37:36;7.90;;;5.03;;
8978;SDS011;4524;51.364;5.448;2022-07-30T00:40:05;10.70;;;5.53;;
8978;SDS011;4524;51.364;5.448;2022-07-30T00:42:37;13.03;;;5.63;;
8978;SDS011;4524;51.364;5.448;2022-07-30T00:45:06;7.63;;;4.43;;
8978;SDS011;4524;51.364;5.448;2022-07-30T00:47:35;7.47;;;4.80;;
8978;SDS011;4524;51.364;5.448;2022-07-30T00:50:04;11.97;;;5.97;;
8978;SDS011;4524;51.364;5.448;2022-07-30T00:52:33;11.40;;;6.37;;
8978;SDS011;4524;51.364;5.448;2022-07-30T00:55:03;12.37;;;6.33;;
8978;SDS011;4524;51.364;5.448;2022-07-30T00:57:32;8.97;;;5.60;;
8978;SDS011;4524;51.364;5.448;2022-07-30T01:00:03;8.63;;;6.00;;
8978;SDS011;4524;51.364;5.448;2022-07-30T01:02:33;9.03;;;6.03;;
8978;SDS011;4524;51.364;5.448;2022-07-30T01:05:02;10.97;;;6.20;;
8978;SDS011;4524;51.364;5.448;2022-07-30T01:07:31;9.67;;;6.40;;
8978;SDS011;4524;51.364;5.448;2022-07-30T01:09:59;8.80;;;5.90;;
8978;SDS011;4524;51.364;5.448;2022-07-30T01:12:27;9.80;;;6.50;;
8978;SDS011;4524;51.364;5.448;2022-07-30T01:14:56;9.83;;;6.77;;
8978;SDS011;4524;51.364;5.448;2022-07-30T01:17:27;11.03;;;6.70;;
8978;SDS011;4524;51.364;5.448;2022-07-30T01:19:55;9.40;;;6.77;;
8978;SDS011;4524;51.364;5.448;2022-07-30T01:25:15;9.97;;;6.67;;
8978;SDS011;4524;51.364;5.448;2022-07-30T01:27:52;11.83;;;6.30;;
8978;SDS011;4524;51.364;5.448;2022-07-30T01:30:25;9.73;;;6.77;;
8978;SDS011;4524;51.364;5.448;2022-07-30T01:32:55;11.00;;;6.73;;
8978;SDS011;4524;51.364;5.448;2022-07-30T01:35:25;10.33;;;6.67;;
8978;SDS011;4524;51.364;5.448;2022-07-30T01:37:55;8.87;;;6.90;;
8978;SDS011;4524;51.364;5.448;2022-07-30T01:40:26;8.63;;;7.13;;
8978;SDS011;4524;51.364;5.448;2022-07-30T01:42:57;11.77;;;6.83;;
8978;SDS011;4524;51.364;5.448;2022-07-30T01:45:28;10.50;;;7.60;;
8978;SDS011;4524;51.364;5.448;2022-07-30T01:48:08;9.70;;;8.20;;
8978;SDS011;4524;51.364;5.448;2022-07-30T01:50:39;7.43;;;6.73;;
8978;SDS011;4524;51.364;5.448;2022-07-30T01:53:13;12.30;;;8.00;;
8978;SDS011;4524;51.364;5.448;2022-07-30T01:55:43;11.07;;;8.37;;
8978;SDS011;4524;51.364;5.448;2022-07-30T01:58:14;9.60;;;7.50;;
8978;SDS011;4524;51.364;5.448;2022-07-30T02:00:48;10.60;;;8.07;;
8978;SDS011;4524;51.364;5.448;2022-07-30T02:03:17;11.03;;;8.00;;
8978;SDS011;4524;51.364;5.448;2022-07-30T02:05:49;10.93;;;7.93;;
8978;SDS011;4524;51.364;5.448;2022-07-30T02:08:23;10.03;;;7.90;;
8978;SDS011;4524;51.364;5.448;2022-07-30T02:10:59;10.60;;;9.33;;
8978;SDS011;4524;51.364;5.448;2022-07-30T02:13:34;8.73;;;7.40;;
8978;SDS011;4524;51.364;5.448;2022-07-30T02:16:08;11.33;;;8.70;;
8978;SDS011;4524;51.364;5.448;2022-07-30T02:18:45;12.00;;;8.73;;
8978;SDS011;4524;51.364;5.448;2022-07-30T02:21:24;15.63;;;8.83;;
8978;SDS011;4524;51.364;5.448;2022-07-30T02:24:02;13.63;;;8.93;;
8978;SDS011;4524;51.364;5.448;2022-07-30T02:26:34;11.30;;;8.87;;
8978;SDS011;4524;51.364;5.448;2022-07-30T02:29:05;12.43;;;9.37;;
8978;SDS011;4524;51.364;5.448;2022-07-30T02:31:37;13.63;;;8.97;;
8978;SDS011;4524;51.364;5.448;2022-07-30T02:34:08;11.27;;;9.70;;
8978;SDS011;4524;51.364;5.448;2022-07-30T02:36:39;14.67;;;11.00;;
8978;SDS011;4524;51.364;5.448;2022-07-30T02:39:09;14.87;;;10.17;;
8978;SDS011;4524;51.364;5.448;2022-07-30T02:41:40;13.37;;;10.40;;
8978;SDS011;4524;51.364;5.448;2022-07-30T02:44:17;15.30;;;9.77;;
8978;SDS011;4524;51.364;5.448;2022-07-30T02:46:46;18.73;;;11.23;;
8978;SDS011;4524;51.364;5.448;2022-07-30T02:49:28;12.60;;;10.27;;
8978;SDS011;4524;51.364;5.448;2022-07-30T02:51:59;10.83;;;9.17;;
8978;SDS011;4524;51.364;5.448;2022-07-30T02:54:28;11.97;;;10.23;;
8978;SDS011;4524;51.364;5.448;2022-07-30T02:56:58;11.50;;;10.30;;
8978;SDS011;4524;51.364;5.448;2022-07-30T02:59:30;13.63;;;10.50;;
8978;SDS011;4524;51.364;5.448;2022-07-30T03:02:00;16.47;;;12.23;;
8978;SDS011;4524;51.364;5.448;2022-07-30T03:04:29;16.27;;;9.80;;
8978;SDS011;4524;51.364;5.448;2022-07-30T03:06:58;16.17;;;11.33;;
8978;SDS011;4524;51.364;5.448;2022-07-30T03:09:34;11.47;;;10.23;;
8978;SDS011;4524;51.364;5.448;2022-07-30T03:12:18;12.13;;;10.60;;
8978;SDS011;4524;51.364;5.448;2022-07-30T03:14:51;13.03;;;11.63;;
8978;SDS011;4524;51.364;5.448;2022-07-30T03:17:19;13.20;;;11.10;;
8978;SDS011;4524;51.364;5.448;2022-07-30T03:19:49;12.73;;;11.43;;
8978;SDS011;4524;51.364;5.448;2022-07-30T03:22:21;12.77;;;11.20;;
8978;SDS011;4524;51.364;5.448;2022-07-30T03:24:58;13.50;;;9.90;;
8978;SDS011;4524;51.364;5.448;2022-07-30T03:27:29;14.40;;;11.37;;
8978;SDS011;4524;51.364;5.448;2022-07-30T03:29:59;14.20;;;11.53;;
8978;SDS011;4524;51.364;5.448;2022-07-30T03:32:29;16.53;;;11.77;;
8978;SDS011;4524;51.364;5.448;2022-07-30T03:34:57;14.63;;;11.73;;
8978;SDS011;4524;51.364;5.448;2022-07-30T03:37:31;12.90;;;11.53;;
8978;SDS011;4524;51.364;5.448;2022-07-30T03:40:04;15.10;;;12.27;;
8978;SDS011;4524;51.364;5.448;2022-07-30T03:42:35;17.07;;;14.33;;
8978;SDS011;4524;51.364;5.448;2022-07-30T03:45:06;13.30;;;11.97;;
8978;SDS011;4524;51.364;5.448;2022-07-30T03:47:36;15.60;;;12.60;;
8978;SDS011;4524;51.364;5.448;2022-07-30T03:50:09;17.60;;;12.80;;
8978;SDS011;4524;51.364;5.448;2022-07-30T03:52:39;16.97;;;14.37;;
8978;SDS011;4524;51.364;5.448;2022-07-30T03:55:12;13.30;;;11.77;;
8978;SDS011;4524;51.364;5.448;2022-07-30T03:57:47;14.47;;;12.83;;
8978;SDS011;4524;51.364;5.448;2022-07-30T04:00:18;17.57;;;13.70;;
8978;SDS011;4524;51.364;5.448;2022-07-30T04:02:50;12.70;;;11.40;;
8978;SDS011;4524;51.364;5.448;2022-07-30T04:05:18;13.17;;;11.30;;
8978;SDS011;4524;51.364;5.448;2022-07-30T04:07:47;16.87;;;14.27;;
8978;SDS011;4524;51.364;5.448;2022-07-30T04:10:18;13.93;;;12.43;;
8978;SDS011;4524;51.364;5.448;2022-07-30T04:12:58;15.40;;;12.70;;
8978;SDS011;4524;51.364;5.448;2022-07-30T04:15:30;21.67;;;15.83;;
8978;SDS011;4524;51.364;5.448;2022-07-30T04:18:24;15.53;;;13.20;;
8978;SDS011;4524;51.364;5.448;2022-07-30T04:20:54;16.97;;;12.90;;
8978;SDS011;4524;51.364;5.448;2022-07-30T04:23:22;15.67;;;13.20;;
8978;SDS011;4524;51.364;5.448;2022-07-30T04:25:51;18.40;;;14.73;;
8978;SDS011;4524;51.364;5.448;2022-07-30T04:28:20;16.33;;;14.27;;
8978;SDS011;4524;51.364;5.448;2022-07-30T04:30:50;19.43;;;16.23;;
8978;SDS011;4524;51.364;5.448;2022-07-30T04:33:18;15.67;;;14.00;;
8978;SDS011;4524;51.364;5.448;2022-07-30T04:36:04;18.53;;;14.77;;
8978;SDS011;4524;51.364;5.448;2022-07-30T04:38:36;14.97;;;13.47;;
8978;SDS011;4524;51.364;5.448;2022-07-30T04:41:04;13.67;;;12.37;;
8978;SDS011;4524;51.364;5.448;2022-07-30T04:43:55;13.97;;;12.13;;
8978;SDS011;4524;51.364;5.448;2022-07-30T04:46:25;18.83;;;15.67;;
8978;SDS011;4524;51.364;5.448;2022-07-30T04:48:53;17.20;;;15.37;;
8978;SDS011;4524;51.364;5.448;2022-07-30T04:51:25;17.73;;;15.83;;
8978;SDS011;4524;51.364;5.448;2022-07-30T04:53:58;22.67;;;17.80;;
8978;SDS011;4524;51.364;5.448;2022-07-30T04:56:27;23.67;;;17.97;;
8978;SDS011;4524;51.364;5.448;2022-07-30T04:58:59;18.93;;;15.87;;
8978;SDS011;4524;51.364;5.448;2022-07-30T05:01:32;22.43;;;18.33;;
8978;SDS011;4524;51.364;5.448;2022-07-30T05:04:07;20.97;;;18.77;;
8978;SDS011;4524;51.364;5.448;2022-07-30T05:06:36;23.17;;;19.27;;
8978;SDS011;4524;51.364;5.448;2022-07-30T05:09:05;18.93;;;16.97;;
8978;SDS011;4524;51.364;5.448;2022-07-30T05:11:34;20.30;;;17.17;;
8978;SDS011;4524;51.364;5.448;2022-07-30T05:14:02;22.30;;;17.60;;
8978;SDS011;4524;51.364;5.448;2022-07-30T05:16:31;17.07;;;15.23;;
8978;SDS011;4524;51.364;5.448;2022-07-30T05:19:01;17.60;;;15.80;;
8978;SDS011;4524;51.364;5.448;2022-07-30T05:21:33;24.37;;;19.30;;
8978;SDS011;4524;51.364;5.448;2022-07-30T05:24:01;18.87;;;16.07;;
8978;SDS011;4524;51.364;5.448;2022-07-30T05:26:35;18.90;;;16.77;;
8978;SDS011;4524;51.364;5.448;2022-07-30T05:29:03;18.77;;;14.17;;
8978;SDS011;4524;51.364;5.448;2022-07-30T05:31:46;16.57;;;14.33;;
8978;SDS011;4524;51.364;5.448;2022-07-30T05:34:16;18.37;;;16.27;;
8978;SDS011;4524;51.364;5.448;2022-07-30T05:36:44;20.03;;;16.33;;
8978;SDS011;4524;51.364;5.448;2022-07-30T05:39:15;20.77;;;17.97;;
8978;SDS011;4524;51.364;5.448;2022-07-30T05:42:03;18.13;;;16.37;;
8978;SDS011;4524;51.364;5.448;2022-07-30T05:44:50;21.60;;;18.90;;
8978;SDS011;4524;51.364;5.448;2022-07-30T05:47:19;21.60;;;18.07;;
8978;SDS011;4524;51.364;5.448;2022-07-30T05:49:48;19.00;;;17.00;;
8978;SDS011;4524;51.364;5.448;2022-07-30T05:52:17;15.03;;;13.00;;
8978;SDS011;4524;51.364;5.448;2022-07-30T05:54:45;20.53;;;18.40;;
8978;SDS011;4524;51.364;5.448;2022-07-30T05:57:33;21.40;;;19.13;;
8978;SDS011;4524;51.364;5.448;2022-07-30T06:00:03;20.13;;;17.27;;
8978;SDS011;4524;51.364;5.448;2022-07-30T06:02:55;20.07;;;16.90;;
8978;SDS011;4524;51.364;5.448;2022-07-30T06:05:56;17.77;;;15.93;;
8978;SDS011;4524;51.364;5.448;2022-07-30T06:08:24;20.93;;;17.50;;
8978;SDS011;4524;51.364;5.448;2022-07-30T06:10:52;20.67;;;18.47;;
8978;SDS011;4524;51.364;5.448;2022-07-30T06:13:20;22.30;;;15.53;;
8978;SDS011;4524;51.364;5.448;2022-07-30T06:15:48;21.87;;;17.73;;
8978;SDS011;4524;51.364;5.448;2022-07-30T06:18:18;21.37;;;17.97;;
8978;SDS011;4524;51.364;5.448;2022-07-30T06:20:50;21.57;;;17.97;;
8978;SDS011;4524;51.364;5.448;2022-07-30T06:23:45;21.17;;;15.47;;
8978;SDS011;4524;51.364;5.448;2022-07-30T06:26:22;22.20;;;17.47;;
8978;SDS011;4524;51.364;5.448;2022-07-30T06:28:49;18.57;;;16.57;;
8978;SDS011;4524;51.364;5.448;2022-07-30T06:31:24;17.07;;;14.00;;
8978;SDS011;4524;51.364;5.448;2022-07-30T06:33:53;17.87;;;14.53;;
8978;SDS011;4524;51.364;5.448;2022-07-30T06:36:23;14.83;;;13.27;;
8978;SDS011;4524;51.364;5.448;2022-07-30T06:38:59;14.60;;;11.63;;
8978;SDS011;4524;51.364;5.448;2022-07-30T06:41:53;15.07;;;13.43;;
8978;SDS011;4524;51.364;5.448;2022-07-30T06:44:24;15.80;;;14.13;;
8978;SDS011;4524;51.364;5.448;2022-07-30T06:47:18;14.93;;;12.93;;
8978;SDS011;4524;51.364;5.448;2022-07-30T06:49:48;14.27;;;11.67;;
8978;SDS011;4524;51.364;5.448;2022-07-30T06:52:16;14.80;;;13.20;;
8978;SDS011;4524;51.364;5.448;2022-07-30T06:54:49;15.60;;;12.97;;
8978;SDS011;4524;51.364;5.448;2022-07-30T06:57:23;12.37;;;11.10;;
8978;SDS011;4524;51.364;5.448;2022-07-30T06:59:51;12.93;;;11.53;;
8978;SDS011;4524;51.364;5.448;2022-07-30T07:02:34;14.40;;;11.30;;
8978;SDS011;4524;51.364;5.448;2022-07-30T07:05:12;10.37;;;9.27;;
8978;SDS011;4524;51.364;5.448;2022-07-30T07:07:49;13.33;;;10.30;;
8978;SDS011;4524;51.364;5.448;2022-07-30T07:10:29;13.53;;;9.57;;
8978;SDS011;4524;51.364;5.448;2022-07-30T07:13:17;10.67;;;8.30;;
8978;SDS011;4524;51.364;5.448;2022-07-30T07:15:46;10.23;;;7.70;;
8978;SDS011;4524;51.364;5.448;2022-07-30T07:18:18;9.53;;;7.30;;
8978;SDS011;4524;51.364;5.448;2022-07-30T07:20:52;8.63;;;6.10;;
8978;SDS011;4524;51.364;5.448;2022-07-30T07:23:21;8.40;;;6.00;;
8978;SDS011;4524;51.364;5.448;2022-07-30T07:25:52;9.30;;;6.65;;
8978;SDS011;4524;51.364;5.448;2022-07-30T07:28:20;9.23;;;6.30;;
8978;SDS011;4524;51.364;5.448;2022-07-30T07:30:58;9.67;;;6.60;;
8978;SDS011;4524;51.364;5.448;2022-07-30T07:33:26;7.20;;;6.37;;
8978;SDS011;4524;51.364;5.448;2022-07-30T07:35:56;9.83;;;6.80;;
8978;SDS011;4524;51.364;5.448;2022-07-30T07:38:27;8.43;;;5.93;;
8978;SDS011;4524;51.364;5.448;2022-07-30T07:40:56;10.00;;;6.00;;
8978;SDS011;4524;51.364;5.448;2022-07-30T07:43:25;8.33;;;5.37;;
8978;SDS011;4524;51.364;5.448;2022-07-30T07:45:56;6.83;;;5.77;;
8978;SDS011;4524;51.364;5.448;2022-07-30T07:48:28;8.10;;;5.27;;
8978;SDS011;4524;51.364;5.448;2022-07-30T07:51:06;7.73;;;5.40;;
8978;SDS011;4524;51.364;5.448;2022-07-30T07:53:35;7.90;;;5.10;;
8978;SDS011;4524;51.364;5.448;2022-07-30T07:56:03;8.23;;;4.70;;
8978;SDS011;4524;51.364;5.448;2022-07-30T07:58:33;5.77;;;4.43;;
8978;SDS011;4524;51.364;5.448;2022-07-30T08:01:04;8.43;;;5.37;;
8978;SDS011;4524;51.364;5.448;2022-07-30T08:03:53;4.93;;;4.33;;
8978;SDS011;4524;51.364;5.448;2022-07-30T08:07:00;8.17;;;4.43;;
8978;SDS011;4524;51.364;5.448;2022-07-30T08:09:50;9.70;;;4.47;;
8978;SDS011;4524;51.364;5.448;2022-07-30T08:12:25;5.27;;;4.63;;
8978;SDS011;4524;51.364;5.448;2022-07-30T08:15:12;7.53;;;4.43;;
8978;SDS011;4524;51.364;5.448;2022-07-30T08:17:45;8.00;;;4.60;;
8978;SDS011;4524;51.364;5.448;2022-07-30T08:20:17;4.60;;;3.87;;
8978;SDS011;4524;51.364;5.448;2022-07-30T08:22:46;5.77;;;4.20;;
8978;SDS011;4524;51.364;5.448;2022-07-30T08:25:14;5.70;;;4.07;;
8978;SDS011;4524;51.364;5.448;2022-07-30T08:27:50;7.10;;;4.37;;
8978;SDS011;4524;51.364;5.448;2022-07-30T08:30:18;5.97;;;4.43;;
8978;SDS011;4524;51.364;5.448;2022-07-30T08:32:47;5.90;;;4.70;;
8978;SDS011;4524;51.364;5.448;2022-07-30T08:35:15;6.67;;;4.80;;
8978;SDS011;4524;51.364;5.448;2022-07-30T08:37:43;6.20;;;4.40;;
8978;SDS011;4524;51.364;5.448;2022-07-30T08:40:16;6.40;;;5.00;;
8978;SDS011;4524;51.364;5.448;2022-07-30T08:42:52;5.70;;;4.53;;
8978;SDS011;4524;51.364;5.448;2022-07-30T08:45:20;7.80;;;4.87;;
8978;SDS011;4524;51.364;5.448;2022-07-30T08:48:10;7.27;;;5.23;;
8978;SDS011;4524;51.364;5.448;2022-07-30T08:50:43;8.37;;;4.83;;
8978;SDS011;4524;51.364;5.448;2022-07-30T08:53:36;7.37;;;5.03;;
8978;SDS011;4524;51.364;5.448;2022-07-30T08:56:05;8.13;;;5.13;;
8978;SDS011;4524;51.364;5.448;2022-07-30T08:58:34;7.53;;;5.47;;
8978;SDS011;4524;51.364;5.448;2022-07-30T09:01:03;5.57;;;5.03;;
8978;SDS011;4524;51.364;5.448;2022-07-30T09:03:32;6.77;;;4.93;;
8978;SDS011;4524;51.364;5.448;2022-07-30T09:06:09;6.50;;;5.70;;
8978;SDS011;4524;51.364;5.448;2022-07-30T09:08:38;5.57;;;4.97;;
8978;SDS011;4524;51.364;5.448;2022-07-30T09:11:06;5.60;;;5.10;;
8978;SDS011;4524;51.364;5.448;2022-07-30T09:13:35;7.17;;;4.63;;
8978;SDS011;4524;51.364;5.448;2022-07-30T09:16:05;7.90;;;4.90;;
8978;SDS011;4524;51.364;5.448;2022-07-30T09:18:36;6.17;;;5.17;;
8978;SDS011;4524;51.364;5.448;2022-07-30T09:21:13;5.93;;;4.00;;
8978;SDS011;4524;51.364;5.448;2022-07-30T09:23:57;5.43;;;4.93;;
8978;SDS011;4524;51.364;5.448;2022-07-30T09:26:51;5.57;;;4.90;;
8978;SDS011;4524;51.364;5.448;2022-07-30T09:29:55;6.63;;;4.73;;
8978;SDS011;4524;51.364;5.448;2022-07-30T09:32:46;7.27;;;5.07;;
8978;SDS011;4524;51.364;5.448;2022-07-30T09:35:53;7.63;;;4.70;;
8978;SDS011;4524;51.364;5.448;2022-07-30T09:38:42;7.50;;;4.00;;
8978;SDS011;4524;51.364;5.448;2022-07-30T09:41:42;5.77;;;5.17;;
8978;SDS011;4524;51.364;5.448;2022-07-30T09:44:11;6.23;;;4.37;;
8978;SDS011;4524;51.364;5.448;2022-07-30T09:46:53;7.33;;;5.43;;
8978;SDS011;4524;51.364;5.448;2022-07-30T09:49:25;6.00;;;4.50;;
8978;SDS011;4524;51.364;5.448;2022-07-30T09:51:55;8.17;;;4.40;;
8978;SDS011;4524;51.364;5.448;2022-07-30T09:54:43;8.17;;;4.63;;
8978;SDS011;4524;51.364;5.448;2022-07-30T09:57:21;5.47;;;4.57;;
8978;SDS011;4524;51.364;5.448;2022-07-30T09:59:57;6.00;;;4.77;;
8978;SDS011;4524;51.364;5.448;2022-07-30T10:02:48;5.73;;;3.70;;
8978;SDS011;4524;51.364;5.448;2022-07-30T10:05:21;8.23;;;4.23;;
8978;SDS011;4524;51.364;5.448;2022-07-30T10:07:50;4.40;;;3.83;;
8978;SDS011;4524;51.364;5.448;2022-07-30T10:10:20;5.60;;;4.20;;
8978;SDS011;4524;51.364;5.448;2022-07-30T10:12:52;6.40;;;3.30;;
8978;SDS011;4524;51.364;5.448;2022-07-30T10:15:23;5.13;;;3.57;;
8978;SDS011;4524;51.364;5.448;2022-07-30T10:17:55;4.87;;;4.40;;
8978;SDS011;4524;51.364;5.448;2022-07-30T10:20:45;4.37;;;3.70;;
8978;SDS011;4524;51.364;5.448;2022-07-30T10:23:33;5.37;;;3.90;;
8978;SDS011;4524;51.364;5.448;2022-07-30T10:26:28;4.40;;;3.70;;
8978;SDS011;4524;51.364;5.448;2022-07-30T10:29:25;5.97;;;3.40;;
8978;SDS011;4524;51.364;5.448;2022-07-30T10:31:59;4.90;;;4.40;;
8978;SDS011;4524;51.364;5.448;2022-07-30T10:34:28;6.90;;;4.53;;
8978;SDS011;4524;51.364;5.448;2022-07-30T10:37:01;6.30;;;4.10;;
8978;SDS011;4524;51.364;5.448;2022-07-30T10:39:33;6.90;;;4.00;;
8978;SDS011;4524;51.364;5.448;2022-07-30T10:42:07;5.13;;;3.90;;
8978;SDS011;4524;51.364;5.448;2022-07-30T10:47:48;7.13;;;4.63;;
8978;SDS011;4524;51.364;5.448;2022-07-30T10:50:18;5.97;;;4.20;;
8978;SDS011;4524;51.364;5.448;2022-07-30T10:52:49;5.37;;;4.33;;
8978;SDS011;4524;51.364;5.448;2022-07-30T10:55:19;5.40;;;3.70;;
8978;SDS011;4524;51.364;5.448;2022-07-30T10:58:05;5.27;;;3.73;;
8978;SDS011;4524;51.364;5.448;2022-07-30T11:00:35;4.70;;;3.30;;
8978;SDS011;4524;51.364;5.448;2022-07-30T11:03:26;3.70;;;3.07;;
8978;SDS011;4524;51.364;5.448;2022-07-30T11:06:25;4.33;;;3.20;;
8978;SDS011;4524;51.364;5.448;2022-07-30T11:08:54;6.23;;;3.47;;
8978;SDS011;4524;51.364;5.448;2022-07-30T11:11:42;4.47;;;3.67;;
8978;SDS011;4524;51.364;5.448;2022-07-30T11:18:00;4.43;;;2.60;;
8978;SDS011;4524;51.364;5.448;2022-07-30T11:20:37;5.60;;;2.57;;
8978;SDS011;4524;51.364;5.448;2022-07-30T11:26:04;6.33;;;2.97;;
8978;SDS011;4524;51.364;5.448;2022-07-30T11:28:33;5.20;;;2.80;;
8978;SDS011;4524;51.364;5.448;2022-07-30T11:31:03;4.20;;;2.50;;
8978;SDS011;4524;51.364;5.448;2022-07-30T11:37:01;4.17;;;2.47;;
8978;SDS011;4524;51.364;5.448;2022-07-30T11:40:06;4.10;;;2.27;;
8978;SDS011;4524;51.364;5.448;2022-07-30T11:42:38;4.83;;;2.20;;
8978;SDS011;4524;51.364;5.448;2022-07-30T11:45:18;3.43;;;2.33;;
8978;SDS011;4524;51.364;5.448;2022-07-30T11:47:55;3.73;;;2.70;;
8978;SDS011;4524;51.364;5.448;2022-07-30T11:50:27;4.17;;;2.73;;
8978;SDS011;4524;51.364;5.448;2022-07-30T11:52:57;4.87;;;2.47;;
8978;SDS011;4524;51.364;5.448;2022-07-30T11:55:26;3.87;;;2.17;;
8978;SDS011;4524;51.364;5.448;2022-07-30T11:57:56;4.90;;;1.90;;
8978;SDS011;4524;51.364;5.448;2022-07-30T12:00:33;4.97;;;2.03;;
8978;SDS011;4524;51.364;5.448;2022-07-30T12:03:10;4.63;;;2.33;;
8978;SDS011;4524;51.364;5.448;2022-07-30T12:05:41;2.73;;;2.10;;
8978;SDS011;4524;51.364;5.448;2022-07-30T12:08:16;2.67;;;2.00;;
8978;SDS011;4524;51.364;5.448;2022-07-30T12:11:01;5.20;;;2.10;;
8978;SDS011;4524;51.364;5.448;2022-07-30T12:13:29;4.50;;;2.40;;
8978;SDS011;4524;51.364;5.448;2022-07-30T12:16:15;2.60;;;2.07;;
8978;SDS011;4524;51.364;5.448;2022-07-30T12:18:43;6.30;;;2.60;;
8978;SDS011;4524;51.364;5.448;2022-07-30T12:21:13;5.17;;;2.33;;
8978;SDS011;4524;51.364;5.448;2022-07-30T12:23:42;4.37;;;2.30;;
8978;SDS011;4524;51.364;5.448;2022-07-30T12:26:20;2.90;;;2.40;;
8978;SDS011;4524;51.364;5.448;2022-07-30T12:28:52;3.70;;;2.00;;
8978;SDS011;4524;51.364;5.448;2022-07-30T12:31:20;4.33;;;2.20;;
8978;SDS011;4524;51.364;5.448;2022-07-30T12:33:50;6.83;;;2.30;;
8978;SDS011;4524;51.364;5.448;2022-07-30T12:36:29;9.47;;;2.80;;
8978;SDS011;4524;51.364;5.448;2022-07-30T12:38:59;7.23;;;2.67;;
8978;SDS011;4524;51.364;5.448;2022-07-30T12:41:39;4.47;;;2.10;;
8978;SDS011;4524;51.364;5.448;2022-07-30T12:44:08;3.93;;;2.40;;
8978;SDS011;4524;51.364;5.448;2022-07-30T12:46:36;5.03;;;2.20;;
8978;SDS011;4524;51.364;5.448;2022-07-30T12:49:06;3.53;;;1.87;;
8978;SDS011;4524;51.364;5.448;2022-07-30T12:51:52;6.17;;;2.00;;
8978;SDS011;4524;51.364;5.448;2022-07-30T12:54:26;4.57;;;2.30;;
8978;SDS011;4524;51.364;5.448;2022-07-30T12:56:55;3.83;;;2.30;;
8978;SDS011;4524;51.364;5.448;2022-07-30T12:59:26;3.27;;;2.17;;
8978;SDS011;4524;51.364;5.448;2022-07-30T13:01:54;5.10;;;2.67;;
8978;SDS011;4524;51.364;5.448;2022-07-30T13:04:25;5.70;;;2.90;;
8978;SDS011;4524;51.364;5.448;2022-07-30T13:07:06;4.90;;;2.83;;
8978;SDS011;4524;51.364;5.448;2022-07-30T13:09:35;4.10;;;2.27;;
8978;SDS011;4524;51.364;5.448;2022-07-30T13:12:05;4.93;;;2.87;;
8978;SDS011;4524;51.364;5.448;2022-07-30T13:14:35;3.93;;;2.80;;
8978;SDS011;4524;51.364;5.448;2022-07-30T13:17:03;5.43;;;2.90;;
8978;SDS011;4524;51.364;5.448;2022-07-30T13:19:32;5.70;;;3.17;;
8978;SDS011;4524;51.364;5.448;2022-07-30T13:22:00;4.60;;;3.07;;
8978;SDS011;4524;51.364;5.448;2022-07-30T13:24:29;4.70;;;3.30;;
8978;SDS011;4524;51.364;5.448;2022-07-30T13:26:59;3.63;;;2.50;;
8978;SDS011;4524;51.364;5.448;2022-07-30T13:29:27;6.00;;;3.13;;
8978;SDS011;4524;51.364;5.448;2022-07-30T13:31:55;6.80;;;2.93;;
8978;SDS011;4524;51.364;5.448;2022-07-30T13:34:23;5.10;;;2.80;;
8978;SDS011;4524;51.364;5.448;2022-07-30T13:36:51;7.03;;;3.40;;
8978;SDS011;4524;51.364;5.448;2022-07-30T13:39:19;4.53;;;3.50;;
8978;SDS011;4524;51.364;5.448;2022-07-30T13:41:49;6.73;;;3.50;;
8978;SDS011;4524;51.364;5.448;2022-07-30T13:44:18;5.70;;;3.37;;
8978;SDS011;4524;51.364;5.448;2022-07-30T13:46:45;5.30;;;3.47;;
8978;SDS011;4524;51.364;5.448;2022-07-30T13:49:13;3.77;;;3.20;;
8978;SDS011;4524;51.364;5.448;2022-07-30T13:51:41;3.87;;;3.00;;
8978;SDS011;4524;51.364;5.448;2022-07-30T13:54:09;4.13;;;3.00;;
8978;SDS011;4524;51.364;5.448;2022-07-30T13:56:39;5.33;;;2.90;;
8978;SDS011;4524;51.364;5.448;2022-07-30T13:59:09;5.30;;;3.20;;
8978;SDS011;4524;51.364;5.448;2022-07-30T14:01:37;6.57;;;3.63;;
8978;SDS011;4524;51.364;5.448;2022-07-30T14:04:05;5.03;;;3.03;;
8978;SDS011;4524;51.364;5.448;2022-07-30T14:06:33;4.97;;;2.80;;
8978;SDS011;4524;51.364;5.448;2022-07-30T14:09:02;5.40;;;2.70;;
8978;SDS011;4524;51.364;5.448;2022-07-30T14:11:30;5.03;;;2.50;;
8978;SDS011;4524;51.364;5.448;2022-07-30T14:13:58;7.07;;;2.00;;
8978;SDS011;4524;51.364;5.448;2022-07-30T14:16:27;4.27;;;2.47;;
8978;SDS011;4524;51.364;5.448;2022-07-30T14:19:14;4.40;;;2.40;;
8978;SDS011;4524;51.364;5.448;2022-07-30T14:21:49;5.30;;;2.67;;
8978;SDS011;4524;51.364;5.448;2022-07-30T14:24:19;3.07;;;2.50;;
8978;SDS011;4524;51.364;5.448;2022-07-30T14:26:48;2.83;;;2.07;;
8978;SDS011;4524;51.364;5.448;2022-07-30T14:29:23;5.00;;;2.33;;
8978;SDS011;4524;51.364;5.448;2022-07-30T14:31:53;4.97;;;2.20;;
8978;SDS011;4524;51.364;5.448;2022-07-30T14:34:22;3.60;;;2.23;;
8978;SDS011;4524;51.364;5.448;2022-07-30T14:36:49;4.47;;;2.53;;
8978;SDS011;4524;51.364;5.448;2022-07-30T14:39:18;3.53;;;2.60;;
8978;SDS011;4524;51.364;5.448;2022-07-30T14:41:46;6.20;;;2.30;;
8978;SDS011;4524;51.364;5.448;2022-07-30T14:44:21;8.30;;;2.80;;
8978;SDS011;4524;51.364;5.448;2022-07-30T14:46:49;3.50;;;2.37;;
8978;SDS011;4524;51.364;5.448;2022-07-30T14:49:20;2.73;;;2.10;;
8978;SDS011;4524;51.364;5.448;2022-07-30T14:51:49;4.73;;;2.67;;
8978;SDS011;4524;51.364;5.448;2022-07-30T14:54:17;6.43;;;2.30;;
8978;SDS011;4524;51.364;5.448;2022-07-30T14:56:46;3.73;;;1.93;;
8978;SDS011;4524;51.364;5.448;2022-07-30T14:59:14;5.87;;;2.20;;
8978;SDS011;4524;51.364;5.448;2022-07-30T15:01:42;3.63;;;2.20;;
8978;SDS011;4524;51.364;5.448;2022-07-30T15:04:10;3.70;;;2.30;;
8978;SDS011;4524;51.364;5.448;2022-07-30T15:06:39;3.60;;;2.00;;
8978;SDS011;4524;51.364;5.448;2022-07-30T15:09:08;3.50;;;2.10;;
8978;SDS011;4524;51.364;5.448;2022-07-30T15:11:36;6.33;;;2.50;;
8978;SDS011;4524;51.364;5.448;2022-07-30T15:14:25;6.57;;;2.55;;
8978;SDS011;4524;51.364;5.448;2022-07-30T15:16:53;4.85;;;2.30;;
8978;SDS011;4524;51.364;5.448;2022-07-30T15:19:29;6.05;;;2.40;;
8978;SDS011;4524;51.364;5.448;2022-07-30T15:21:58;4.57;;;2.53;;
8978;SDS011;4524;51.364;5.448;2022-07-30T15:24:28;3.43;;;2.47;;
8978;SDS011;4524;51.364;5.448;2022-07-30T15:26:57;7.93;;;2.47;;
8978;SDS011;4524;51.364;5.448;2022-07-30T15:29:25;3.40;;;2.07;;
8978;SDS011;4524;51.364;5.448;2022-07-30T15:31:55;4.80;;;2.33;;
8978;SDS011;4524;51.364;5.448;2022-07-30T15:34:26;4.33;;;1.90;;
8978;SDS011;4524;51.364;5.448;2022-07-30T15:36:55;3.63;;;2.20;;
8978;SDS011;4524;51.364;5.448;2022-07-30T15:39:24;4.83;;;2.30;;
8978;SDS011;4524;51.364;5.448;2022-07-30T15:41:54;5.43;;;2.03;;
8978;SDS011;4524;51.364;5.448;2022-07-30T15:44:23;3.13;;;2.23;;
8978;SDS011;4524;51.364;5.448;2022-07-30T15:46:51;5.43;;;2.13;;
8978;SDS011;4524;51.364;5.448;2022-07-30T15:49:19;6.57;;;2.00;;
8978;SDS011;4524;51.364;5.448;2022-07-30T15:51:47;4.23;;;2.13;;
8978;SDS011;4524;51.364;5.448;2022-07-30T15:54:17;3.33;;;2.30;;
8978;SDS011;4524;51.364;5.448;2022-07-30T15:56:50;6.10;;;2.27;;